sensor_id;sensor_type;location;lat;lon;timestamp;pressure;altitude;pressure_sealevel;temperature;humidity
69909;BME280;57190;47.918;8.112;2022-11-20T00:00:40;90301.16;;;2.39;83.49
69909;BME280;57190;47.918;8.112;2022-11-20T00:03:05;90295.81;;;2.33;82.61
69909;BME280;57190;47.918;8.112;2022-11-20T00:05:32;90302.19;;;2.38;82.68
69909;BME280;57190;47.918;8.112;2022-11-20T00:07:58;90291.22;;;2.41;83.03
69909;BME280;57190;47.918;8.112;2022-11-20T00:10:23;90299.34;;;2.39;83.20
69909;BME280;57190;47.918;8.112;2022-11-20T00:12:49;90296.00;;;2.44;83.08
69909;BME280;57190;47.918;8.112;2022-11-20T00:15:15;90295.91;;;2.39;82.55
69909;BME280;57190;47.918;8.112;2022-11-20T00:17:40;90303.47;;;2.35;83.22
69909;BME280;57190;47.918;8.112;2022-11-20T00:20:06;90296.13;;;2.37;82.80
69909;BME280;57190;47.918;8.112;2022-11-20T00:22:31;90303.00;;;2.38;82.99
69909;BME280;57190;47.918;8.112;2022-11-20T00:24:57;90294.28;;;2.38;83.09
69909;BME280;57190;47.918;8.112;2022-11-20T00:27:23;90304.63;;;2.39;82.57
69909;BME280;57190;47.918;8.112;2022-11-20T00:29:48;90296.59;;;2.34;83.31
69909;BME280;57190;47.918;8.112;2022-11-20T00:32:14;90302.88;;;2.33;82.71
69909;BME280;57190;47.918;8.112;2022-11-20T00:34:39;90302.09;;;2.32;83.23
69909;BME280;57190;47.918;8.112;2022-11-20T00:37:04;90304.25;;;2.35;82.89
69909;BME280;57190;47.918;8.112;2022-11-20T00:39:30;90302.88;;;2.33;82.83
69909;BME280;57190;47.918;8.112;2022-11-20T00:41:55;90306.09;;;2.35;82.47
69909;BME280;57190;47.918;8.112;2022-11-20T00:44:21;90307.13;;;2.34;83.58
69909;BME280;57190;47.918;8.112;2022-11-20T00:46:46;90304.16;;;2.30;83.29
69909;BME280;57190;47.918;8.112;2022-11-20T00:49:12;90304.94;;;2.31;83.41
69909;BME280;57190;47.918;8.112;2022-11-20T00:51:37;90308.63;;;2.30;82.99
69909;BME280;57190;47.918;8.112;2022-11-20T00:54:03;90311.47;;;2.28;83.19
69909;BME280;57190;47.918;8.112;2022-11-20T00:56:28;90298.56;;;2.27;83.19
69909;BME280;57190;47.918;8.112;2022-11-20T00:58:54;90301.28;;;2.20;82.71
69909;BME280;57190;47.918;8.112;2022-11-20T01:01:21;90304.16;;;2.18;82.61
69909;BME280;57190;47.918;8.112;2022-11-20T01:03:50;90306.69;;;2.13;83.24
69909;BME280;57190;47.918;8.112;2022-11-20T01:08:45;90309.00;;;2.10;83.18
69909;BME280;57190;47.918;8.112;2022-11-20T01:11:16;90307.59;;;2.07;83.08
69909;BME280;57190;47.918;8.112;2022-11-20T01:13:43;90309.78;;;2.10;83.11
69909;BME280;57190;47.918;8.112;2022-11-20T01:16:18;90307.38;;;2.09;82.61
69909;BME280;57190;47.918;8.112;2022-11-20T01:18:46;90308.41;;;2.08;82.99
69909;BME280;57190;47.918;8.112;2022-11-20T01:21:19;90306.13;;;2.11;82.57
69909;BME280;57190;47.918;8.112;2022-11-20T01:23:45;90309.66;;;2.17;82.49
69909;BME280;57190;47.918;8.112;2022-11-20T01:26:16;90312.84;;;2.19;82.91
69909;BME280;57190;47.918;8.112;2022-11-20T01:28:42;90314.13;;;2.16;82.25
69909;BME280;57190;47.918;8.112;2022-11-20T01:31:14;90320.19;;;2.17;82.73
69909;BME280;57190;47.918;8.112;2022-11-20T01:33:41;90318.00;;;2.14;82.45
69909;BME280;57190;47.918;8.112;2022-11-20T01:36:07;90318.94;;;2.08;82.57
69909;BME280;57190;47.918;8.112;2022-11-20T01:38:33;90317.66;;;2.10;82.15
69909;BME280;57190;47.918;8.112;2022-11-20T01:40:59;90322.00;;;2.04;82.91
69909;BME280;57190;47.918;8.112;2022-11-20T01:43:25;90320.06;;;2.12;82.51
69909;BME280;57190;47.918;8.112;2022-11-20T01:46:16;90320.75;;;2.07;82.09
69909;BME280;57190;47.918;8.112;2022-11-20T01:51:38;90326.59;;;2.09;81.73
69909;BME280;57190;47.918;8.112;2022-11-20T01:54:08;90320.53;;;2.09;81.01
69909;BME280;57190;47.918;8.112;2022-11-20T01:56:38;90319.72;;;2.08;81.84
69909;BME280;57190;47.918;8.112;2022-11-20T01:59:07;90331.84;;;2.09;82.03
69909;BME280;57190;47.918;8.112;2022-11-20T02:01:33;90320.31;;;2.10;81.49
69909;BME280;57190;47.918;8.112;2022-11-20T02:03:59;90320.53;;;2.09;81.76
69909;BME280;57190;47.918;8.112;2022-11-20T02:06:28;90317.91;;;2.09;81.77
69909;BME280;57190;47.918;8.112;2022-11-20T02:08:56;90319.03;;;2.01;81.37
69909;BME280;57190;47.918;8.112;2022-11-20T02:11:21;90321.22;;;2.04;80.69
69909;BME280;57190;47.918;8.112;2022-11-20T02:13:48;90318.47;;;1.99;80.48
69909;BME280;57190;47.918;8.112;2022-11-20T02:16:22;90322.50;;;2.01;80.85
69909;BME280;57190;47.918;8.112;2022-11-20T02:18:49;90318.34;;;1.94;81.20
69909;BME280;57190;47.918;8.112;2022-11-20T02:24:06;90321.44;;;1.91;79.56
69909;BME280;57190;47.918;8.112;2022-11-20T02:26:37;90320.41;;;1.92;79.55
69909;BME280;57190;47.918;8.112;2022-11-20T02:29:04;90319.03;;;1.89;79.71
69909;BME280;57190;47.918;8.112;2022-11-20T02:31:36;90320.31;;;1.86;79.64
69909;BME280;57190;47.918;8.112;2022-11-20T02:34:02;90314.22;;;1.86;80.43
69909;BME280;57190;47.918;8.112;2022-11-20T02:36:28;90315.50;;;1.83;79.75
69909;BME280;57190;47.918;8.112;2022-11-20T02:38:55;90318.78;;;1.79;79.89
69909;BME280;57190;47.918;8.112;2022-11-20T02:41:21;90311.16;;;1.77;80.51
69909;BME280;57190;47.918;8.112;2022-11-20T02:43:47;90304.28;;;1.76;80.34
69909;BME280;57190;47.918;8.112;2022-11-20T02:46:13;90307.94;;;1.75;79.33
69909;BME280;57190;47.918;8.112;2022-11-20T02:48:38;90303.50;;;1.76;79.38
69909;BME280;57190;47.918;8.112;2022-11-20T02:51:04;90304.38;;;1.69;79.15
69909;BME280;57190;47.918;8.112;2022-11-20T02:53:30;90303.94;;;1.61;80.14
69909;BME280;57190;47.918;8.112;2022-11-20T02:55:55;90304.38;;;1.57;79.93
69909;BME280;57190;47.918;8.112;2022-11-20T02:58:21;90298.66;;;1.49;80.63
69909;BME280;57190;47.918;8.112;2022-11-20T03:00:46;90296.94;;;1.43;80.60
69909;BME280;57190;47.918;8.112;2022-11-20T03:03:11;90290.97;;;1.35;80.74
69909;BME280;57190;47.918;8.112;2022-11-20T03:05:37;90290.84;;;1.30;81.01
69909;BME280;57190;47.918;8.112;2022-11-20T03:08:02;90292.09;;;1.28;81.17
69909;BME280;57190;47.918;8.112;2022-11-20T03:10:28;90293.34;;;1.25;81.23
69909;BME280;57190;47.918;8.112;2022-11-20T03:12:54;90294.59;;;1.22;81.16
69909;BME280;57190;47.918;8.112;2022-11-20T03:15:21;90294.03;;;1.20;81.34
69909;BME280;57190;47.918;8.112;2022-11-20T03:17:47;90287.16;;;1.19;80.94
69909;BME280;57190;47.918;8.112;2022-11-20T03:20:13;90286.16;;;1.20;81.42
69909;BME280;57190;47.918;8.112;2022-11-20T03:22:38;90294.47;;;1.17;81.16
69909;BME280;57190;47.918;8.112;2022-11-20T03:25:04;90289.22;;;1.17;81.15
69909;BME280;57190;47.918;8.112;2022-11-20T03:27:34;90293.69;;;1.17;80.99
69909;BME280;57190;47.918;8.112;2022-11-20T03:30:00;90297.75;;;1.13;80.49
69909;BME280;57190;47.918;8.112;2022-11-20T03:32:26;90292.81;;;1.04;81.00
69909;BME280;57190;47.918;8.112;2022-11-20T03:34:51;90296.94;;;1.00;80.97
69909;BME280;57190;47.918;8.112;2022-11-20T03:37:16;90309.34;;;0.93;81.09
69909;BME280;57190;47.918;8.112;2022-11-20T03:39:42;90303.72;;;0.89;81.05
69909;BME280;57190;47.918;8.112;2022-11-20T03:42:08;90305.91;;;0.92;81.11
69909;BME280;57190;47.918;8.112;2022-11-20T03:44:54;90310.59;;;0.90;80.93
69909;BME280;57190;47.918;8.112;2022-11-20T03:47:20;90312.63;;;0.88;80.91
69909;BME280;57190;47.918;8.112;2022-11-20T03:49:45;90299.50;;;0.88;81.09
69909;BME280;57190;47.918;8.112;2022-11-20T03:52:11;90306.72;;;0.93;81.08
69909;BME280;57190;47.918;8.112;2022-11-20T03:54:36;90304.59;;;1.02;80.95
69909;BME280;57190;47.918;8.112;2022-11-20T03:57:02;90307.91;;;1.09;81.51
69909;BME280;57190;47.918;8.112;2022-11-20T03:59:27;90318.09;;;1.17;81.05
69909;BME280;57190;47.918;8.112;2022-11-20T04:01:53;90308.97;;;1.20;81.38
69909;BME280;57190;47.918;8.112;2022-11-20T04:04:18;90314.38;;;1.25;81.03
69909;BME280;57190;47.918;8.112;2022-11-20T04:06:44;90309.25;;;1.30;80.99
69909;BME280;57190;47.918;8.112;2022-11-20T04:09:09;90312.22;;;1.34;80.62
69909;BME280;57190;47.918;8.112;2022-11-20T04:11:36;90323.75;;;1.33;81.18
69909;BME280;57190;47.918;8.112;2022-11-20T04:14:06;90322.06;;;1.38;81.01
69909;BME280;57190;47.918;8.112;2022-11-20T04:16:36;90320.22;;;1.39;81.39
69909;BME280;57190;47.918;8.112;2022-11-20T04:19:04;90324.59;;;1.45;81.18
69909;BME280;57190;47.918;8.112;2022-11-20T04:21:30;90317.50;;;1.46;81.36
69909;BME280;57190;47.918;8.112;2022-11-20T04:23:56;90318.66;;;1.50;81.60
69909;BME280;57190;47.918;8.112;2022-11-20T04:26:24;90315.34;;;1.54;81.58
69909;BME280;57190;47.918;8.112;2022-11-20T04:28:50;90310.09;;;1.54;81.62
69909;BME280;57190;47.918;8.112;2022-11-20T04:31:21;90304.94;;;1.60;81.25
69909;BME280;57190;47.918;8.112;2022-11-20T04:33:47;90307.91;;;1.63;81.40
69909;BME280;57190;47.918;8.112;2022-11-20T04:38:38;90309.44;;;1.71;81.74
69909;BME280;57190;47.918;8.112;2022-11-20T04:41:06;90307.81;;;1.70;81.30
69909;BME280;57190;47.918;8.112;2022-11-20T04:43:32;90309.44;;;1.71;82.10
69909;BME280;57190;47.918;8.112;2022-11-20T04:45:59;90308.75;;;1.76;81.91
69909;BME280;57190;47.918;8.112;2022-11-20T04:48:26;90311.16;;;1.77;81.91
69909;BME280;57190;47.918;8.112;2022-11-20T04:50:53;90304.72;;;1.73;81.91
69909;BME280;57190;47.918;8.112;2022-11-20T04:53:19;90304.72;;;1.73;82.24
69909;BME280;57190;47.918;8.112;2022-11-20T04:55:44;90312.50;;;1.80;81.66
69909;BME280;57190;47.918;8.112;2022-11-20T04:58:10;90313.53;;;1.79;82.32
69909;BME280;57190;47.918;8.112;2022-11-20T05:00:36;90315.72;;;1.82;81.96
69909;BME280;57190;47.918;8.112;2022-11-20T05:03:01;90309.19;;;1.84;81.33
69909;BME280;57190;47.918;8.112;2022-11-20T05:05:27;90311.38;;;1.87;81.86
69909;BME280;57190;47.918;8.112;2022-11-20T05:07:52;90306.13;;;1.87;81.48
69909;BME280;57190;47.918;8.112;2022-11-20T05:10:18;90301.41;;;1.89;82.04
69909;BME280;57190;47.918;8.112;2022-11-20T05:12:43;90309.44;;;1.83;82.36
69909;BME280;57190;47.918;8.112;2022-11-20T05:15:09;90311.59;;;1.86;81.67
69909;BME280;57190;47.918;8.112;2022-11-20T05:17:34;90302.69;;;1.87;82.17
69909;BME280;57190;47.918;8.112;2022-11-20T05:20:00;90315.38;;;1.90;81.73
69909;BME280;57190;47.918;8.112;2022-11-20T05:22:26;90312.75;;;1.90;81.92
69909;BME280;57190;47.918;8.112;2022-11-20T05:24:51;90311.94;;;1.89;81.88
69909;BME280;57190;47.918;8.112;2022-11-20T05:27:17;90313.00;;;1.88;82.55
69909;BME280;57190;47.918;8.112;2022-11-20T05:29:42;90316.16;;;1.91;81.88
69909;BME280;57190;47.918;8.112;2022-11-20T05:32:07;90309.78;;;1.98;81.61
69909;BME280;57190;47.918;8.112;2022-11-20T05:34:35;90316.31;;;1.96;81.71
69909;BME280;57190;47.918;8.112;2022-11-20T05:37:01;90312.41;;;1.98;81.69
69909;BME280;57190;47.918;8.112;2022-11-20T05:39:27;90314.03;;;1.99;82.28
69909;BME280;57190;47.918;8.112;2022-11-20T05:41:53;90314.03;;;1.99;81.86
69909;BME280;57190;47.918;8.112;2022-11-20T05:44:38;90318.69;;;1.97;82.15
69909;BME280;57190;47.918;8.112;2022-11-20T05:47:04;90303.50;;;1.99;82.18
69909;BME280;57190;47.918;8.112;2022-11-20T05:49:30;90307.59;;;1.95;81.78
69909;BME280;57190;47.918;8.112;2022-11-20T05:51:55;90314.34;;;1.91;82.28
69909;BME280;57190;47.918;8.112;2022-11-20T05:54:21;90313.69;;;1.96;81.89
69909;BME280;57190;47.918;8.112;2022-11-20T05:56:46;90311.03;;;1.96;81.57
69909;BME280;57190;47.918;8.112;2022-11-20T05:59:12;90312.41;;;1.98;81.67
69909;BME280;57190;47.918;8.112;2022-11-20T06:01:37;90314.03;;;1.99;80.94
69909;BME280;57190;47.918;8.112;2022-11-20T06:04:02;90308.19;;;1.97;81.37
69909;BME280;57190;47.918;8.112;2022-11-20T06:06:28;90309.09;;;2.03;81.43
69909;BME280;57190;47.918;8.112;2022-11-20T06:08:54;90315.97;;;2.04;81.60
69909;BME280;57190;47.918;8.112;2022-11-20T06:11:20;90306.22;;;2.04;81.34
69909;BME280;57190;47.918;8.112;2022-11-20T06:13:46;90305.19;;;2.06;82.19
69909;BME280;57190;47.918;8.112;2022-11-20T06:16:14;90312.31;;;2.05;82.30
69909;BME280;57190;47.918;8.112;2022-11-20T06:18:40;90313.88;;;2.06;82.27
69909;BME280;57190;47.918;8.112;2022-11-20T06:21:08;90311.16;;;2.13;82.18
69909;BME280;57190;47.918;8.112;2022-11-20T06:23:34;90318.25;;;2.12;82.03
69909;BME280;57190;47.918;8.112;2022-11-20T06:26:05;90312.84;;;2.07;81.89
69909;BME280;57190;47.918;8.112;2022-11-20T06:28:31;90309.09;;;2.15;81.07
69909;BME280;57190;47.918;8.112;2022-11-20T06:30:57;90309.19;;;2.20;80.97
69909;BME280;57190;47.918;8.112;2022-11-20T06:33:23;90313.44;;;2.21;81.33
69909;BME280;57190;47.918;8.112;2022-11-20T06:35:48;90316.63;;;2.23;80.96
69909;BME280;57190;47.918;8.112;2022-11-20T06:38:14;90310.34;;;2.24;80.26
69909;BME280;57190;47.918;8.112;2022-11-20T06:40:40;90323.03;;;2.27;79.88
69909;BME280;57190;47.918;8.112;2022-11-20T06:43:06;90315.03;;;2.22;81.23
69909;BME280;57190;47.918;8.112;2022-11-20T06:45:31;90320.41;;;2.27;81.25
69909;BME280;57190;47.918;8.112;2022-11-20T06:47:57;90320.63;;;2.26;81.46
69909;BME280;57190;47.918;8.112;2022-11-20T06:50:23;90319.38;;;2.28;81.15
69909;BME280;57190;47.918;8.112;2022-11-20T06:52:49;90324.09;;;2.26;81.36
69909;BME280;57190;47.918;8.112;2022-11-20T06:55:15;90330.13;;;2.27;81.37
69909;BME280;57190;47.918;8.112;2022-11-20T06:57:40;90332.53;;;2.28;81.30
69909;BME280;57190;47.918;8.112;2022-11-20T07:00:06;90330.72;;;2.29;81.15
69909;BME280;57190;47.918;8.112;2022-11-20T07:02:32;90333.78;;;2.26;81.61
69909;BME280;57190;47.918;8.112;2022-11-20T07:04:57;90333.00;;;2.25;81.32
69909;BME280;57190;47.918;8.112;2022-11-20T07:07:23;90340.91;;;2.13;81.11
69909;BME280;57190;47.918;8.112;2022-11-20T07:09:49;90339.28;;;2.12;82.51
69909;BME280;57190;47.918;8.112;2022-11-20T07:12:14;90355.19;;;2.17;82.27
69909;BME280;57190;47.918;8.112;2022-11-20T07:14:39;90348.56;;;2.15;81.66
69909;BME280;57190;47.918;8.112;2022-11-20T07:17:05;90344.91;;;2.16;82.64
69909;BME280;57190;47.918;8.112;2022-11-20T07:19:30;90341.78;;;2.19;82.18
69909;BME280;57190;47.918;8.112;2022-11-20T07:21:56;90351.28;;;2.32;82.47
69909;BME280;57190;47.918;8.112;2022-11-20T07:24:21;90342.25;;;2.40;81.80
69909;BME280;57190;47.918;8.112;2022-11-20T07:26:47;90347.06;;;2.43;82.17
69909;BME280;57190;47.918;8.112;2022-11-20T07:29:14;90347.63;;;2.45;82.56
69909;BME280;57190;47.918;8.112;2022-11-20T07:31:41;90350.03;;;2.46;82.84
69909;BME280;57190;47.918;8.112;2022-11-20T07:34:07;90348.53;;;2.50;82.30
69909;BME280;57190;47.918;8.112;2022-11-20T07:36:32;90356.66;;;2.49;82.22
69909;BME280;57190;47.918;8.112;2022-11-20T07:38:58;90355.31;;;2.46;82.89
69909;BME280;57190;47.918;8.112;2022-11-20T07:41:23;90355.84;;;2.48;82.90
69909;BME280;57190;47.918;8.112;2022-11-20T07:43:49;90354.03;;;2.49;82.28
69909;BME280;57190;47.918;8.112;2022-11-20T07:46:14;90358.28;;;2.50;82.34
69909;BME280;57190;47.918;8.112;2022-11-20T07:48:40;90353.56;;;2.52;81.90
69909;BME280;57190;47.918;8.112;2022-11-20T07:51:05;90353.22;;;2.48;82.61
69909;BME280;57190;47.918;8.112;2022-11-20T07:53:30;90354.63;;;2.51;81.93
69909;BME280;57190;47.918;8.112;2022-11-20T07:56:00;90359.19;;;2.56;82.54
69909;BME280;57190;47.918;8.112;2022-11-20T07:58:26;90358.59;;;2.54;82.02
69909;BME280;57190;47.918;8.112;2022-11-20T08:00:51;90355.03;;;2.60;81.81
69909;BME280;57190;47.918;8.112;2022-11-20T08:03:18;90359.72;;;2.70;82.57
69909;BME280;57190;47.918;8.112;2022-11-20T08:05:44;90357.41;;;2.73;82.00
69909;BME280;57190;47.918;8.112;2022-11-20T08:08:10;90352.72;;;2.75;82.15
69909;BME280;57190;47.918;8.112;2022-11-20T08:10:38;90360.75;;;2.80;82.21
69909;BME280;57190;47.918;8.112;2022-11-20T08:13:04;90361.09;;;2.84;81.96
69909;BME280;57190;47.918;8.112;2022-11-20T08:15:49;90365.06;;;2.87;81.96
69909;BME280;57190;47.918;8.112;2022-11-20T08:18:16;90366.91;;;2.86;81.35
69909;BME280;57190;47.918;8.112;2022-11-20T08:20:42;90371.94;;;2.88;81.82
69909;BME280;57190;47.918;8.112;2022-11-20T08:23:08;90378.59;;;2.90;81.32
69909;BME280;57190;47.918;8.112;2022-11-20T08:25:35;90375.13;;;2.90;81.30
69909;BME280;57190;47.918;8.112;2022-11-20T08:28:05;90370.81;;;2.83;81.58
69909;BME280;57190;47.918;8.112;2022-11-20T08:30:31;90372.84;;;2.81;81.06
69909;BME280;57190;47.918;8.112;2022-11-20T08:33:01;90381.25;;;2.78;81.64
69909;BME280;57190;47.918;8.112;2022-11-20T08:35:28;90387.78;;;2.76;82.38
69909;BME280;57190;47.918;8.112;2022-11-20T08:37:53;90393.84;;;2.76;82.20
69909;BME280;57190;47.918;8.112;2022-11-20T08:40:19;90400.94;;;2.76;81.88
69909;BME280;57190;47.918;8.112;2022-11-20T08:42:50;90394.66;;;2.77;81.82
69909;BME280;57190;47.918;8.112;2022-11-20T08:45:17;90405.97;;;2.77;82.00
69909;BME280;57190;47.918;8.112;2022-11-20T08:47:43;90406.78;;;2.78;82.58
69909;BME280;57190;47.918;8.112;2022-11-20T08:50:11;90406.66;;;2.73;83.06
69909;BME280;57190;47.918;8.112;2022-11-20T08:52:37;90403.69;;;2.69;83.29
69909;BME280;57190;47.918;8.112;2022-11-20T08:55:03;90399.91;;;2.65;83.01
69909;BME280;57190;47.918;8.112;2022-11-20T08:57:36;90407.25;;;2.63;83.43
69909;BME280;57190;47.918;8.112;2022-11-20T09:00:04;90400.16;;;2.63;83.38
69909;BME280;57190;47.918;8.112;2022-11-20T09:02:30;90411.25;;;2.65;83.28
69909;BME280;57190;47.918;8.112;2022-11-20T09:04:56;90402.53;;;2.65;83.44
69909;BME280;57190;47.918;8.112;2022-11-20T09:07:21;90411.34;;;2.71;82.98
69909;BME280;57190;47.918;8.112;2022-11-20T09:09:47;90405.75;;;2.67;83.28
69909;BME280;57190;47.918;8.112;2022-11-20T09:12:13;90410.91;;;2.74;82.88
69909;BME280;57190;47.918;8.112;2022-11-20T09:14:39;90407.47;;;2.73;83.09
69909;BME280;57190;47.918;8.112;2022-11-20T09:17:04;90407.25;;;2.75;83.42
69909;BME280;57190;47.918;8.112;2022-11-20T09:19:29;90408.38;;;2.79;82.93
69909;BME280;57190;47.918;8.112;2022-11-20T09:21:55;90409.28;;;2.85;82.63
69909;BME280;57190;47.918;8.112;2022-11-20T09:24:20;90407.47;;;2.85;82.13
69909;BME280;57190;47.918;8.112;2022-11-20T09:26:46;90409.38;;;2.90;82.41
69909;BME280;57190;47.918;8.112;2022-11-20T09:29:12;90405.34;;;2.99;81.85
69909;BME280;57190;47.918;8.112;2022-11-20T09:31:37;90412.69;;;3.09;82.50
69909;BME280;57190;47.918;8.112;2022-11-20T09:34:02;90418.66;;;3.04;82.06
69909;BME280;57190;47.918;8.112;2022-11-20T09:36:28;90425.19;;;3.02;82.25
69909;BME280;57190;47.918;8.112;2022-11-20T09:38:53;90424.25;;;3.08;81.41
69909;BME280;57190;47.918;8.112;2022-11-20T09:41:36;90425.53;;;3.05;81.21
69909;BME280;57190;47.918;8.112;2022-11-20T09:50:05;90422.91;;;3.05;81.89
69909;BME280;57190;47.918;8.112;2022-11-20T09:55:11;90429.28;;;3.09;81.29
69909;BME280;57190;47.918;8.112;2022-11-20T09:57:41;90428.28;;;2.98;81.51
69909;BME280;57190;47.918;8.112;2022-11-20T10:00:12;90425.56;;;2.93;81.55
69909;BME280;57190;47.918;8.112;2022-11-20T10:10:34;90423.63;;;3.29;80.70
69909;BME280;57190;47.918;8.112;2022-11-20T10:16:23;90429.53;;;3.08;80.83
69909;BME280;57190;47.918;8.112;2022-11-20T10:22:04;90440.41;;;3.11;81.63
69909;BME280;57190;47.918;8.112;2022-11-20T10:24:44;90440.16;;;3.13;80.92
69909;BME280;57190;47.918;8.112;2022-11-20T10:27:22;90427.22;;;3.11;80.68
69909;BME280;57190;47.918;8.112;2022-11-20T10:30:11;90435.50;;;3.03;80.56
69909;BME280;57190;47.918;8.112;2022-11-20T10:32:39;90424.72;;;3.05;81.43
69909;BME280;57190;47.918;8.112;2022-11-20T10:35:34;90425.75;;;3.04;80.40
69909;BME280;57190;47.918;8.112;2022-11-20T10:38:07;90420.72;;;3.02;80.36
69909;BME280;57190;47.918;8.112;2022-11-20T10:40:57;90426.78;;;3.03;80.42
69909;BME280;57190;47.918;8.112;2022-11-20T10:43:44;90425.53;;;3.05;80.23
69909;BME280;57190;47.918;8.112;2022-11-20T10:46:17;90429.19;;;3.04;80.02
69909;BME280;57190;47.918;8.112;2022-11-20T10:48:45;90428.16;;;3.05;80.09
69909;BME280;57190;47.918;8.112;2022-11-20T10:51:37;90420.34;;;3.10;81.08
69909;BME280;57190;47.918;8.112;2022-11-20T10:57:23;90410.03;;;3.21;80.59
69909;BME280;57190;47.918;8.112;2022-11-20T11:00:07;90403.56;;;3.28;80.99
69909;BME280;57190;47.918;8.112;2022-11-20T11:02:51;90396.69;;;3.27;80.79
69909;BME280;57190;47.918;8.112;2022-11-20T11:07:53;90393.19;;;3.22;80.31
69909;BME280;57190;47.918;8.112;2022-11-20T11:10:21;90387.25;;;3.14;81.08
69909;BME280;57190;47.918;8.112;2022-11-20T11:12:48;90398.50;;;2.98;80.06
69909;BME280;57190;47.918;8.112;2022-11-20T11:15:27;90394.06;;;2.87;79.90
69909;BME280;57190;47.918;8.112;2022-11-20T11:17:53;90395.53;;;2.82;80.72
69909;BME280;57190;47.918;8.112;2022-11-20T11:20:22;90394.50;;;2.83;80.95
69909;BME280;57190;47.918;8.112;2022-11-20T11:22:51;90398.16;;;2.94;80.60
69909;BME280;57190;47.918;8.112;2022-11-20T11:25:29;90395.53;;;2.82;80.68
69909;BME280;57190;47.918;8.112;2022-11-20T11:27:57;90393.16;;;2.81;81.07
69909;BME280;57190;47.918;8.112;2022-11-20T11:30:25;90385.56;;;2.85;81.38
69909;BME280;57190;47.918;8.112;2022-11-20T11:33:02;90387.84;;;2.93;80.38
69909;BME280;57190;47.918;8.112;2022-11-20T11:35:29;90378.47;;;3.26;80.20
69909;BME280;57190;47.918;8.112;2022-11-20T11:38:03;90367.38;;;3.70;78.51
69909;BME280;57190;47.918;8.112;2022-11-20T11:40:31;90355.59;;;3.89;77.80
69909;BME280;57190;47.918;8.112;2022-11-20T11:43:01;90356.94;;;3.92;78.22
69909;BME280;57190;47.918;8.112;2022-11-20T11:45:27;90360.38;;;3.75;77.93
69909;BME280;57190;47.918;8.112;2022-11-20T11:47:55;90354.31;;;3.75;77.93
69909;BME280;57190;47.918;8.112;2022-11-20T11:50:24;90350.84;;;3.74;78.16
69909;BME280;57190;47.918;8.112;2022-11-20T11:53:19;90348.00;;;3.76;77.73
69909;BME280;57190;47.918;8.112;2022-11-20T11:56:03;90348.13;;;3.86;78.02
69909;BME280;57190;47.918;8.112;2022-11-20T11:58:48;90342.78;;;3.81;77.99
69909;BME280;57190;47.918;8.112;2022-11-20T12:04:17;90330.47;;;4.04;76.27
69909;BME280;57190;47.918;8.112;2022-11-20T12:06:50;90334.63;;;4.34;76.16
69909;BME280;57190;47.918;8.112;2022-11-20T12:09:18;90330.28;;;4.45;76.22
69909;BME280;57190;47.918;8.112;2022-11-20T12:11:51;90334.53;;;4.29;76.37
69909;BME280;57190;47.918;8.112;2022-11-20T12:14:31;90330.22;;;4.22;76.08
69909;BME280;57190;47.918;8.112;2022-11-20T12:16:57;90326.81;;;4.22;75.90
69909;BME280;57190;47.918;8.112;2022-11-20T12:19:23;90323.69;;;4.08;74.44
69909;BME280;57190;47.918;8.112;2022-11-20T12:22:00;90314.25;;;3.95;75.11
69909;BME280;57190;47.918;8.112;2022-11-20T12:30:07;90311.03;;;4.27;75.41
69909;BME280;57190;47.918;8.112;2022-11-20T12:44:10;90315.41;;;5.00;73.99
69909;BME280;57190;47.918;8.112;2022-11-20T12:47:37;90308.88;;;4.85;74.68
69909;BME280;57190;47.918;8.112;2022-11-20T12:50:37;90304.88;;;4.83;74.37
69909;BME280;57190;47.918;8.112;2022-11-20T13:01:40;90314.28;;;4.51;74.63
69909;BME280;57190;47.918;8.112;2022-11-20T13:06:54;90303.72;;;4.74;73.52
69909;BME280;57190;47.918;8.112;2022-11-20T13:09:20;90312.31;;;4.64;73.04
69909;BME280;57190;47.918;8.112;2022-11-20T13:14:55;90305.28;;;4.30;73.55
69909;BME280;57190;47.918;8.112;2022-11-20T13:20:17;90303.28;;;4.03;72.17
69909;BME280;57190;47.918;8.112;2022-11-20T13:22:48;90302.34;;;3.92;72.91
69909;BME280;57190;47.918;8.112;2022-11-20T13:25:28;90302.81;;;3.89;73.16
69909;BME280;57190;47.918;8.112;2022-11-20T13:27:56;90288.03;;;3.88;74.37
69909;BME280;57190;47.918;8.112;2022-11-20T13:30:31;90286.81;;;3.96;73.67
69909;BME280;57190;47.918;8.112;2022-11-20T13:33:08;90291.38;;;4.01;74.13
69909;BME280;57190;47.918;8.112;2022-11-20T13:35:37;90277.59;;;4.16;74.30
69909;BME280;57190;47.918;8.112;2022-11-20T13:38:13;90277.44;;;4.22;74.07
69909;BME280;57190;47.918;8.112;2022-11-20T13:40:51;90274.00;;;4.22;74.09
69909;BME280;57190;47.918;8.112;2022-11-20T13:46:02;90270.84;;;4.25;73.52
69909;BME280;57190;47.918;8.112;2022-11-20T13:48:41;90270.44;;;4.11;74.00
69909;BME280;57190;47.918;8.112;2022-11-20T14:02:25;90266.28;;;3.98;75.47
69909;BME280;57190;47.918;8.112;2022-11-20T14:04:54;90260.28;;;4.03;75.50
69909;BME280;57190;47.918;8.112;2022-11-20T14:07:26;90264.81;;;4.07;75.85
69909;BME280;57190;47.918;8.112;2022-11-20T14:09:57;90258.50;;;4.08;76.06
69909;BME280;57190;47.918;8.112;2022-11-20T14:12:28;90257.38;;;4.04;75.42
69909;BME280;57190;47.918;8.112;2022-11-20T14:14:54;90257.97;;;4.06;74.92
69909;BME280;57190;47.918;8.112;2022-11-20T14:17:22;90259.47;;;4.02;74.06
69909;BME280;57190;47.918;8.112;2022-11-20T14:19:50;90256.88;;;4.07;74.20
69909;BME280;57190;47.918;8.112;2022-11-20T14:24:44;90244.25;;;4.09;73.45
69909;BME280;57190;47.918;8.112;2022-11-20T14:27:16;90244.88;;;4.17;74.25
69909;BME280;57190;47.918;8.112;2022-11-20T14:29:44;90242.84;;;4.24;73.55
69909;BME280;57190;47.918;8.112;2022-11-20T14:32:11;90239.06;;;4.15;72.91
69909;BME280;57190;47.918;8.112;2022-11-20T14:34:41;90232.19;;;4.14;73.30
69909;BME280;57190;47.918;8.112;2022-11-20T14:37:13;90227.47;;;3.99;73.66
69909;BME280;57190;47.918;8.112;2022-11-20T14:39:47;90228.06;;;3.84;74.24
69909;BME280;57190;47.918;8.112;2022-11-20T14:42:22;90226.44;;;3.83;74.81
69909;BME280;57190;47.918;8.112;2022-11-20T14:44:49;90220.00;;;3.73;74.51
69909;BME280;57190;47.918;8.112;2022-11-20T14:47:19;90213.53;;;3.64;74.88
69909;BME280;57190;47.918;8.112;2022-11-20T14:49:46;90207.38;;;3.58;74.84